Terminal Aerodrome Forecast
Issued by NWS Missoula, MT

Home | Current Version | Previous Version | Text Only | Print | Product List | Glossary On
Versions: 1 2 3 4 5 6 7 8 9 10 11 12 13 14 15 16 17 18
000
FTUS45 KMSO 201140
TAFMSO
TAF
KMSO 201140Z 2012/2112 34008KT P6SM -SHRA OVC040
     FM201400 13005KT 5SM -RA BR OVC025
     FM201600 14010KT P6SM VCSH OVC035
     FM202100 11004KT 4SM -RAGS BR SCT015 OVC025
     FM210200 32005KT 6SM -RA BR OVC020=

USA.gov is the U.S. government's official web portal to all federal, state and local government web resources and services.